createdAt,value
2022-12-07T00:01:17.740Z,8.03
2022-12-07T00:03:46.201Z,8.83
2022-12-07T00:06:14.711Z,8.53
2022-12-07T00:08:41.738Z,8.60
2022-12-07T00:11:11.531Z,9.00
2022-12-07T00:13:39.096Z,9.00
2022-12-07T00:16:14.237Z,8.73
2022-12-07T00:18:41.383Z,8.67
2022-12-07T00:21:12.606Z,8.47
2022-12-07T00:23:40.338Z,9.00
2022-12-07T00:26:13.814Z,9.10
2022-12-07T00:28:41.025Z,8.83
2022-12-07T00:31:11.040Z,8.33
2022-12-07T00:33:39.152Z,8.90
2022-12-07T00:36:11.998Z,8.80
2022-12-07T00:38:39.872Z,8.10
2022-12-07T00:41:18.252Z,8.80
2022-12-07T00:43:46.268Z,8.57
2022-12-07T00:46:14.044Z,8.10
2022-12-07T00:48:41.183Z,8.27
2022-12-07T00:51:08.439Z,8.50
2022-12-07T00:53:41.109Z,8.97
2022-12-07T00:56:12.324Z,9.37
2022-12-07T00:58:39.077Z,8.60
2022-12-07T01:01:07.341Z,9.30
2022-12-07T01:03:34.073Z,9.10
2022-12-07T01:06:00.914Z,9.93
2022-12-07T01:08:28.632Z,8.83
2022-12-07T01:11:06.096Z,9.20
2022-12-07T01:13:33.955Z,9.47
2022-12-07T01:16:02.491Z,9.10
2022-12-07T01:18:30.839Z,9.70
2022-12-07T01:21:15.810Z,9.90
2022-12-07T01:23:43.162Z,9.63
2022-12-07T01:26:16.152Z,9.33
2022-12-07T01:28:43.209Z,9.53
2022-12-07T01:31:16.248Z,9.13
2022-12-07T01:33:44.968Z,9.57
2022-12-07T01:36:23.567Z,9.70
2022-12-07T01:38:53.357Z,9.23
2022-12-07T01:41:21.436Z,8.70
2022-12-07T01:44:08.752Z,9.87
2022-12-07T01:46:35.378Z,9.10
2022-12-07T01:49:02.536Z,9.80
2022-12-07T01:51:29.520Z,9.30
2022-12-07T01:53:56.087Z,9.33
2022-12-07T01:56:27.598Z,9.37
2022-12-07T01:58:57.332Z,8.93
2022-12-07T02:01:23.991Z,8.87
2022-12-07T02:03:50.843Z,8.47
2022-12-07T02:06:21.869Z,8.47
2022-12-07T02:08:48.332Z,9.20
2022-12-07T02:11:15.301Z,9.00
2022-12-07T02:13:46.020Z,8.67
2022-12-07T02:16:28.297Z,9.10
2022-12-07T02:19:26.887Z,8.73
2022-12-07T02:22:24.072Z,9.47
2022-12-07T02:25:09.558Z,8.77
2022-12-07T02:27:53.849Z,9.50
2022-12-07T02:30:22.190Z,9.53
2022-12-07T02:33:14.680Z,9.53
2022-12-07T02:35:46.407Z,9.30
2022-12-07T02:38:20.088Z,9.40
2022-12-07T02:40:55.277Z,9.80
2022-12-07T02:43:24.992Z,9.13
2022-12-07T02:45:54.404Z,9.63
2022-12-07T02:48:22.052Z,9.57
2022-12-07T02:50:54.227Z,9.23
2022-12-07T02:53:38.263Z,9.27
2022-12-07T02:56:10.449Z,8.93
2022-12-07T02:58:56.022Z,8.40
2022-12-07T03:01:50.750Z,9.23
2022-12-07T03:04:45.373Z,8.53
2022-12-07T03:07:30.236Z,8.63
2022-12-07T03:10:23.939Z,8.97
2022-12-07T03:13:12.514Z,9.03
2022-12-07T03:16:11.404Z,8.60
2022-12-07T03:18:56.264Z,8.30
2022-12-07T03:21:27.983Z,8.77
2022-12-07T03:24:01.158Z,9.50
2022-12-07T03:26:36.709Z,9.23
2022-12-07T03:29:13.089Z,9.03
2022-12-07T03:31:44.937Z,9.57
2022-12-07T03:34:37.584Z,9.50
2022-12-07T03:37:27.436Z,8.40
2022-12-07T03:40:05.632Z,9.20
2022-12-07T03:42:33.842Z,9.70
2022-12-07T03:45:02.429Z,9.10
2022-12-07T03:47:35.943Z,9.27
2022-12-07T03:50:11.746Z,9.80
2022-12-07T03:53:00.306Z,9.80
2022-12-07T03:55:37.338Z,9.60
2022-12-07T03:58:10.964Z,9.13
2022-12-07T04:00:38.222Z,8.83
2022-12-07T04:03:04.885Z,8.80
2022-12-07T04:05:31.542Z,9.00
2022-12-07T04:07:58.100Z,8.97
2022-12-07T04:10:24.684Z,8.83
2022-12-07T04:12:51.141Z,9.57
2022-12-07T04:15:17.717Z,9.73
2022-12-07T04:17:44.279Z,10.23
2022-12-07T04:20:11.572Z,9.83
2022-12-07T04:22:38.112Z,10.13
2022-12-07T04:25:05.358Z,9.60
2022-12-07T04:27:31.958Z,10.17
2022-12-07T04:29:58.514Z,9.30
2022-12-07T04:32:25.058Z,9.60
2022-12-07T04:34:55.418Z,10.63
2022-12-07T04:37:22.671Z,10.13
2022-12-07T04:39:49.124Z,9.73
2022-12-07T04:42:15.644Z,9.83
2022-12-07T04:44:42.363Z,9.27
2022-12-07T04:47:08.886Z,10.00
2022-12-07T04:49:35.511Z,9.83
2022-12-07T04:52:02.169Z,9.63
2022-12-07T04:54:28.762Z,10.47
2022-12-07T04:56:55.228Z,9.33
2022-12-07T04:59:21.883Z,9.70
2022-12-07T05:01:48.618Z,10.00
2022-12-07T05:04:16.932Z,9.83
2022-12-07T05:06:43.379Z,9.90
2022-12-07T05:09:09.878Z,9.70
2022-12-07T05:11:39.160Z,9.60
2022-12-07T05:14:26.760Z,9.60
2022-12-07T05:16:54.438Z,10.10
2022-12-07T05:19:21.336Z,10.63
2022-12-07T05:21:48.578Z,9.93
2022-12-07T05:24:17.368Z,9.30
2022-12-07T05:26:44.552Z,9.53
2022-12-07T05:29:14.762Z,9.10
2022-12-07T05:31:41.654Z,9.87
2022-12-07T05:34:08.293Z,10.20
2022-12-07T05:36:34.814Z,10.00
2022-12-07T05:39:01.586Z,9.97
2022-12-07T05:41:46.887Z,9.77
2022-12-07T05:44:13.388Z,10.13
2022-12-07T05:46:39.906Z,9.97
2022-12-07T05:49:06.484Z,10.03
2022-12-07T05:51:33.131Z,10.30
2022-12-07T05:53:59.671Z,10.73
2022-12-07T05:56:27.534Z,10.63
2022-12-07T05:59:13.209Z,11.27
2022-12-07T06:01:39.717Z,11.43
2022-12-07T06:04:06.190Z,10.67
2022-12-07T06:06:32.682Z,10.50
2022-12-07T06:08:59.432Z,11.07
2022-12-07T06:11:44.244Z,11.63
2022-12-07T06:14:10.734Z,11.23
2022-12-07T06:16:37.238Z,11.93
2022-12-07T06:19:03.739Z,11.80
2022-12-07T06:21:30.240Z,11.00
2022-12-07T06:23:57.131Z,10.83
2022-12-07T06:26:23.602Z,11.13
2022-12-07T06:28:50.333Z,12.10
2022-12-07T06:31:17.046Z,11.90
2022-12-07T06:33:43.884Z,12.40
2022-12-07T06:36:10.881Z,11.07
2022-12-07T06:38:37.604Z,12.40
2022-12-07T06:41:04.216Z,11.10
2022-12-07T06:43:30.913Z,12.33
2022-12-07T06:45:57.486Z,13.07
2022-12-07T06:48:24.078Z,12.57
2022-12-07T06:50:54.770Z,12.20
2022-12-07T06:53:22.138Z,12.97
2022-12-07T06:55:48.627Z,12.60
2022-12-07T06:58:15.072Z,12.60
2022-12-07T07:00:42.009Z,13.37
2022-12-07T07:03:08.816Z,13.53
2022-12-07T07:05:35.705Z,13.40
2022-12-07T07:08:21.900Z,13.63
2022-12-07T07:10:49.004Z,12.37
2022-12-07T07:13:15.454Z,13.20
2022-12-07T07:15:41.952Z,12.90
2022-12-07T07:18:08.416Z,12.43
2022-12-07T07:20:35.361Z,14.83
2022-12-07T07:23:01.971Z,14.80
2022-12-07T07:25:28.462Z,13.90
2022-12-07T07:27:54.965Z,13.83
2022-12-07T07:30:21.629Z,14.67
2022-12-07T07:32:48.129Z,19.00
2022-12-07T07:35:15.084Z,14.63
2022-12-07T07:37:41.981Z,14.80
2022-12-07T07:40:10.204Z,17.43
2022-12-07T07:42:37.085Z,16.20
2022-12-07T07:45:03.953Z,13.70
2022-12-07T07:47:30.493Z,15.17
2022-12-07T07:49:58.070Z,13.93
2022-12-07T07:52:24.576Z,12.63
2022-12-07T07:54:51.054Z,13.23
2022-12-07T07:57:18.631Z,13.37
2022-12-07T07:59:45.201Z,14.30
2022-12-07T08:02:17.315Z,13.30
2022-12-07T08:04:44.073Z,13.80
2022-12-07T08:07:11.401Z,13.07
2022-12-07T08:09:38.258Z,13.57
2022-12-07T08:12:05.204Z,13.83
2022-12-07T08:14:31.973Z,13.37
2022-12-07T08:16:58.681Z,14.33
2022-12-07T08:19:25.435Z,13.60
2022-12-07T08:21:52.048Z,13.10
2022-12-07T08:24:19.111Z,14.20
2022-12-07T08:26:45.592Z,15.40
2022-12-07T08:29:12.122Z,13.33
2022-12-07T08:31:38.964Z,14.07
2022-12-07T08:34:05.513Z,13.60
2022-12-07T08:36:32.009Z,16.57
2022-12-07T08:41:44.958Z,14.33
2022-12-07T08:44:11.445Z,13.40
2022-12-07T08:46:48.184Z,13.63
2022-12-07T08:49:25.914Z,14.07
2022-12-07T08:51:52.694Z,14.80
2022-12-07T08:54:20.103Z,14.30
2022-12-07T08:56:50.068Z,13.33
2022-12-07T08:59:20.329Z,13.77
2022-12-07T09:01:47.037Z,13.43
2022-12-07T09:04:13.604Z,13.73
2022-12-07T09:06:40.245Z,13.60
2022-12-07T09:09:07.562Z,13.83
2022-12-07T09:11:34.084Z,13.53
2022-12-07T09:14:00.562Z,13.57
2022-12-07T09:16:27.286Z,14.17
2022-12-07T09:18:53.876Z,13.33
2022-12-07T09:21:20.359Z,12.90
2022-12-07T09:23:46.847Z,12.90
2022-12-07T09:26:13.345Z,13.67
2022-12-07T09:28:40.296Z,13.33
2022-12-07T09:31:24.691Z,13.30
2022-12-07T09:34:00.978Z,13.10
2022-12-07T09:36:28.606Z,13.50
2022-12-07T09:38:55.469Z,13.13
2022-12-07T09:41:23.740Z,13.50
2022-12-07T09:43:50.887Z,14.43
2022-12-07T09:46:21.193Z,12.90
2022-12-07T09:48:49.439Z,12.43
2022-12-07T09:51:25.539Z,15.00
2022-12-07T09:53:54.628Z,13.33
2022-12-07T09:56:22.854Z,13.33
2022-12-07T09:58:50.387Z,12.70
2022-12-07T10:01:19.563Z,12.97
2022-12-07T10:03:51.968Z,12.70
2022-12-07T10:06:19.050Z,13.20
2022-12-07T10:08:45.538Z,12.67
2022-12-07T10:11:12.670Z,13.73
2022-12-07T10:13:41.713Z,12.37
2022-12-07T10:16:35.947Z,12.37
2022-12-07T10:19:32.972Z,12.47
2022-12-07T10:22:14.457Z,11.97
2022-12-07T10:24:43.575Z,11.33
2022-12-07T10:27:30.214Z,11.90
2022-12-07T10:29:59.415Z,11.87
2022-12-07T10:32:33.701Z,12.30
2022-12-07T10:35:27.521Z,11.60
2022-12-07T10:37:55.883Z,12.30
2022-12-07T10:40:38.663Z,12.00
2022-12-07T10:43:15.203Z,11.70
2022-12-07T10:46:03.376Z,11.67
2022-12-07T10:48:50.048Z,11.50
2022-12-07T10:51:42.043Z,11.07
2022-12-07T10:54:21.475Z,11.03
2022-12-07T10:56:54.679Z,10.20
2022-12-07T10:59:59.213Z,10.70
2022-12-07T11:02:41.307Z,9.77
2022-12-07T11:05:36.859Z,10.37
2022-12-07T11:08:21.289Z,10.13
2022-12-07T11:11:17.042Z,9.63
2022-12-07T11:13:49.475Z,8.43
2022-12-07T11:16:15.895Z,8.67
2022-12-07T11:19:07.504Z,8.73
2022-12-07T11:21:41.613Z,8.40
2022-12-07T11:24:18.540Z,8.07
2022-12-07T11:27:28.663Z,8.00
2022-12-07T11:30:04.622Z,7.77
2022-12-07T11:32:46.801Z,7.20
2022-12-07T11:35:25.491Z,6.77
2022-12-07T11:38:00.127Z,5.90
2022-12-07T11:40:37.165Z,6.27
2022-12-07T11:43:22.110Z,5.87
2022-12-07T11:45:59.493Z,6.70
2022-12-07T11:48:36.258Z,7.43
2022-12-07T11:51:05.322Z,7.67
2022-12-07T11:53:39.666Z,7.70
2022-12-07T11:56:12.063Z,7.90
2022-12-07T11:58:43.914Z,7.37
2022-12-07T12:01:32.613Z,8.30
2022-12-07T12:04:11.206Z,6.57
2022-12-07T12:06:43.818Z,8.07
2022-12-07T12:09:39.717Z,7.53
2022-12-07T12:15:27.221Z,6.27
2022-12-07T12:18:18.468Z,6.33
2022-12-07T12:21:08.327Z,6.60
2022-12-07T12:23:44.266Z,6.07
2022-12-07T12:26:26.261Z,6.40
2022-12-07T12:29:00.209Z,6.70
2022-12-07T12:31:29.846Z,7.00
2022-12-07T12:33:58.835Z,7.70
2022-12-07T12:36:28.447Z,6.97
2022-12-07T12:39:17.331Z,6.50
2022-12-07T12:41:49.622Z,6.60
2022-12-07T12:44:16.023Z,6.33
2022-12-07T12:46:54.631Z,6.30
2022-12-07T12:49:21.031Z,5.57
2022-12-07T12:51:49.511Z,6.00
2022-12-07T12:54:18.965Z,6.13
2022-12-07T12:57:12.538Z,5.57
2022-12-07T12:59:48.072Z,6.50
2022-12-07T13:02:25.020Z,5.53
2022-12-07T13:05:03.003Z,5.77
2022-12-07T13:07:52.179Z,5.80
2022-12-07T13:10:25.156Z,6.13
2022-12-07T13:13:02.006Z,5.90
2022-12-07T13:16:04.873Z,5.60
2022-12-07T13:18:33.951Z,6.47
2022-12-07T13:21:09.455Z,6.10
2022-12-07T13:23:45.300Z,6.33
2022-12-07T13:26:25.796Z,5.53
2022-12-07T13:28:52.264Z,5.43
2022-12-07T13:31:33.861Z,6.80
2022-12-07T13:34:01.229Z,7.40
2022-12-07T13:36:36.363Z,5.40
2022-12-07T13:39:15.969Z,5.20
2022-12-07T13:41:43.769Z,5.20
2022-12-07T13:44:18.141Z,4.90
2022-12-07T13:47:04.611Z,5.70
2022-12-07T13:49:34.005Z,5.30
2022-12-07T13:52:18.332Z,5.90
2022-12-07T13:54:47.346Z,4.90
2022-12-07T13:57:14.176Z,5.50
2022-12-07T13:59:40.789Z,5.10
2022-12-07T14:02:22.527Z,6.20
2022-12-07T14:04:52.992Z,5.57
2022-12-07T14:07:22.406Z,5.23
2022-12-07T14:10:06.959Z,5.60
2022-12-07T14:12:36.846Z,5.43
2022-12-07T14:15:04.974Z,5.00
2022-12-07T14:17:32.064Z,5.10
2022-12-07T14:20:00.972Z,5.50
2022-12-07T14:22:31.916Z,4.83
2022-12-07T14:25:19.408Z,4.63
2022-12-07T14:27:56.637Z,4.67
2022-12-07T14:30:25.431Z,4.23
2022-12-07T14:32:55.667Z,4.73
2022-12-07T14:35:22.250Z,5.77
2022-12-07T14:37:50.288Z,5.30
2022-12-07T14:40:22.880Z,5.00
2022-12-07T14:42:52.494Z,4.43
2022-12-07T14:45:21.857Z,4.67
2022-12-07T14:50:38.649Z,4.70
2022-12-07T14:53:28.964Z,4.97
2022-12-07T14:55:55.461Z,4.47
2022-12-07T14:58:21.911Z,4.60
2022-12-07T15:00:48.593Z,5.07
2022-12-07T15:03:15.433Z,5.00
2022-12-07T15:05:42.612Z,4.60
2022-12-07T15:08:11.276Z,4.50
2022-12-07T15:10:39.676Z,4.47
2022-12-07T15:13:25.838Z,3.93
2022-12-07T15:15:54.055Z,4.10
2022-12-07T15:18:21.845Z,4.13
2022-12-07T15:20:49.080Z,5.00
2022-12-07T15:23:16.207Z,4.87
2022-12-07T15:25:44.438Z,5.07
2022-12-07T15:28:10.931Z,5.57
2022-12-07T15:30:43.695Z,5.53
2022-12-07T15:33:11.009Z,5.90
2022-12-07T15:35:44.682Z,6.27
2022-12-07T15:38:11.998Z,5.97
2022-12-07T15:40:38.484Z,5.73
2022-12-07T15:43:05.281Z,5.90
2022-12-07T15:45:31.784Z,6.13
2022-12-07T15:50:44.719Z,6.27
2022-12-07T15:53:11.421Z,6.30
2022-12-07T15:55:41.108Z,7.13
2022-12-07T15:58:08.100Z,6.87
2022-12-07T16:00:34.665Z,6.87
2022-12-07T16:03:01.297Z,6.23
2022-12-07T16:05:28.027Z,6.20
2022-12-07T16:07:54.523Z,5.60
2022-12-07T16:10:21.111Z,6.57
2022-12-07T16:12:47.837Z,6.43
2022-12-07T16:15:14.337Z,5.73
2022-12-07T16:17:40.779Z,6.67
2022-12-07T16:20:09.106Z,7.07
2022-12-07T16:22:35.572Z,6.43
2022-12-07T16:25:02.839Z,5.83
2022-12-07T16:27:29.651Z,6.07
2022-12-07T16:29:56.757Z,5.43
2022-12-07T16:32:23.212Z,6.33
2022-12-07T16:34:49.633Z,6.33
2022-12-07T16:37:16.140Z,6.33
2022-12-07T16:39:42.663Z,10.10
2022-12-07T16:42:09.136Z,10.53
2022-12-07T16:44:35.596Z,8.10
2022-12-07T16:47:02.412Z,7.20
2022-12-07T16:49:29.042Z,7.57
2022-12-07T16:52:18.233Z,7.47
2022-12-07T16:54:42.034Z,8.13
2022-12-07T16:57:08.475Z,9.10
2022-12-07T16:59:34.966Z,8.70
2022-12-07T17:02:01.465Z,8.07
2022-12-07T17:04:28.027Z,8.00
2022-12-07T17:06:54.791Z,7.67
2022-12-07T17:09:21.767Z,7.80
2022-12-07T17:11:48.704Z,7.50
2022-12-07T17:14:33.839Z,8.27
2022-12-07T17:17:02.814Z,7.63
2022-12-07T17:19:29.334Z,8.00
2022-12-07T17:21:55.982Z,7.93
2022-12-07T17:24:23.012Z,7.27
2022-12-07T17:26:49.757Z,8.63
2022-12-07T17:29:18.250Z,7.20
2022-12-07T17:31:50.862Z,8.00
2022-12-07T17:34:18.414Z,8.30
2022-12-07T17:36:45.965Z,8.27
2022-12-07T17:39:16.362Z,9.20
2022-12-07T17:42:01.712Z,9.40
2022-12-07T17:44:28.873Z,10.10
2022-12-07T17:46:58.901Z,9.97
2022-12-07T17:49:26.364Z,9.53
2022-12-07T17:52:11.497Z,10.00
2022-12-07T17:54:38.106Z,24.43
2022-12-07T17:57:05.363Z,20.43
2022-12-07T17:59:31.873Z,18.07
2022-12-07T18:01:58.408Z,12.70
2022-12-07T18:04:26.005Z,11.47
2022-12-07T18:06:52.930Z,11.77
2022-12-07T18:09:21.956Z,11.37
2022-12-07T18:11:48.472Z,10.73
2022-12-07T18:14:15.071Z,10.20
2022-12-07T18:16:41.668Z,12.60
2022-12-07T18:19:09.124Z,15.60
2022-12-07T18:21:35.970Z,19.17
2022-12-07T18:24:04.521Z,19.77
2022-12-07T18:26:33.677Z,21.80
2022-12-07T18:29:00.809Z,19.47
2022-12-07T18:31:28.179Z,20.93
2022-12-07T18:33:56.249Z,19.27
2022-12-07T18:36:23.478Z,19.27
2022-12-07T18:38:50.249Z,21.77
2022-12-07T18:41:16.777Z,22.40
2022-12-07T18:43:43.337Z,21.63
2022-12-07T18:46:12.293Z,17.13
2022-12-07T18:48:39.442Z,15.20
2022-12-07T18:51:07.742Z,12.07
2022-12-07T18:53:35.526Z,12.50
2022-12-07T18:56:08.247Z,11.73
2022-12-07T18:58:35.144Z,12.37
2022-12-07T19:01:01.714Z,13.37
2022-12-07T19:03:32.993Z,14.23
2022-12-07T19:05:59.620Z,15.00
2022-12-07T19:08:26.272Z,14.40
2022-12-07T19:10:52.810Z,16.70
2022-12-07T19:13:19.396Z,15.60
2022-12-07T19:15:45.920Z,15.60
2022-12-07T19:18:12.432Z,15.83
2022-12-07T19:20:39.507Z,15.27
2022-12-07T19:23:06.097Z,13.27
2022-12-07T19:25:32.590Z,13.00
2022-12-07T19:27:59.062Z,12.43
2022-12-07T19:30:25.753Z,10.67
2022-12-07T19:32:52.980Z,11.20
2022-12-07T19:35:19.561Z,11.20
2022-12-07T19:37:46.124Z,11.97
2022-12-07T19:40:12.883Z,10.67
2022-12-07T19:42:39.394Z,11.60
2022-12-07T19:45:06.514Z,11.63
2022-12-07T19:47:33.172Z,14.90
2022-12-07T19:49:59.647Z,15.23
2022-12-07T19:52:26.697Z,18.40
2022-12-07T19:54:53.269Z,16.90
2022-12-07T19:57:19.726Z,16.47
2022-12-07T19:59:46.742Z,14.73
2022-12-07T20:02:15.890Z,14.07
2022-12-07T20:04:42.512Z,13.90
2022-12-07T20:07:09.049Z,12.60
2022-12-07T20:09:35.872Z,13.77
2022-12-07T20:12:21.436Z,14.47
2022-12-07T20:14:48.001Z,13.43
2022-12-07T20:17:14.735Z,14.37
2022-12-07T20:22:41.205Z,12.63
2022-12-07T20:25:35.126Z,12.63
2022-12-07T20:28:06.674Z,12.60
2022-12-07T20:30:33.289Z,11.73
2022-12-07T20:33:00.012Z,12.27
2022-12-07T20:35:35.844Z,13.83
2022-12-07T20:38:17.760Z,14.03
2022-12-07T20:41:06.586Z,14.90
2022-12-07T20:43:36.559Z,13.33
2022-12-07T20:46:03.316Z,16.60
2022-12-07T20:48:32.653Z,14.17
2022-12-07T20:51:12.683Z,14.43
2022-12-07T20:53:52.765Z,13.97
2022-12-07T20:56:42.981Z,13.77
2022-12-07T20:59:13.492Z,13.23
2022-12-07T21:01:45.331Z,14.60
2022-12-07T21:04:13.671Z,13.47
2022-12-07T21:06:40.409Z,14.03
2022-12-07T21:09:07.374Z,14.40
2022-12-07T21:11:39.849Z,14.43
2022-12-07T21:14:14.345Z,13.53
2022-12-07T21:17:02.527Z,13.67
2022-12-07T21:19:29.406Z,14.53
2022-12-07T21:22:06.949Z,14.33
2022-12-07T21:24:38.881Z,14.43
2022-12-07T21:27:06.563Z,14.07
2022-12-07T21:29:44.224Z,14.83
2022-12-07T21:32:26.623Z,14.47
2022-12-07T21:34:53.125Z,15.20
2022-12-07T21:37:19.631Z,15.77
2022-12-07T21:39:46.095Z,15.77
2022-12-07T21:42:12.608Z,16.37
2022-12-07T21:44:39.164Z,16.97
2022-12-07T21:47:05.919Z,15.97
2022-12-07T21:49:35.439Z,15.07
2022-12-07T21:52:02.144Z,15.90
2022-12-07T21:54:28.833Z,15.37
2022-12-07T21:56:55.469Z,16.60
2022-12-07T21:59:22.066Z,15.73
2022-12-07T22:01:52.027Z,16.50
2022-12-07T22:04:23.649Z,17.37
2022-12-07T22:06:50.968Z,16.90
2022-12-07T22:09:23.429Z,16.17
2022-12-07T22:11:50.331Z,16.00
2022-12-07T22:14:35.570Z,15.70
2022-12-07T22:17:02.819Z,17.10
2022-12-07T22:19:29.312Z,15.03
2022-12-07T22:21:55.848Z,16.13
2022-12-07T22:24:22.335Z,15.13
2022-12-07T22:26:48.790Z,16.50
2022-12-07T22:29:16.150Z,16.07
2022-12-07T22:31:42.718Z,17.93
2022-12-07T22:34:15.065Z,15.70
2022-12-07T22:36:41.650Z,17.10
2022-12-07T22:39:09.689Z,17.00
2022-12-07T22:41:36.256Z,16.60
2022-12-07T22:44:06.040Z,16.20
2022-12-07T22:46:33.864Z,17.00
2022-12-07T22:49:01.567Z,16.80
2022-12-07T22:51:31.071Z,17.43
2022-12-07T22:54:02.428Z,16.93
2022-12-07T22:56:30.761Z,16.87
2022-12-07T22:58:57.416Z,17.03
2022-12-07T23:01:24.450Z,18.03
2022-12-07T23:03:51.457Z,17.47
2022-12-07T23:06:26.832Z,18.33
2022-12-07T23:08:55.929Z,17.13
2022-12-07T23:11:43.126Z,17.17
2022-12-07T23:14:15.260Z,16.03
2022-12-07T23:16:41.985Z,16.67
2022-12-07T23:19:09.049Z,15.60
2022-12-07T23:21:35.639Z,16.63
2022-12-07T23:24:02.412Z,18.10
2022-12-07T23:26:29.060Z,17.83
2022-12-07T23:28:55.887Z,17.77
2022-12-07T23:31:22.421Z,17.77
2022-12-07T23:33:48.943Z,17.73
2022-12-07T23:36:21.977Z,16.73
2022-12-07T23:38:50.215Z,16.83
2022-12-07T23:41:25.280Z,15.40
2022-12-07T23:43:53.183Z,15.00
2022-12-07T23:46:21.777Z,15.50
2022-12-07T23:48:50.364Z,15.93
2022-12-07T23:51:17.932Z,14.47
2022-12-07T23:53:46.487Z,16.27
2022-12-07T23:56:18.719Z,14.97
2022-12-07T23:58:45.872Z,13.80
